Park Ridge, Wisconsin
Current Conditions -  °F | °C
As of 5:15 AM on Monday 20 Oct 2014 (Local Time) from KSTE Reporting Station
Clear Clear  
Wind Chill: 39°   Ceiling: Unl
Heat Index: 42°   Visibility: 10mi
Dew Point: 40°   Wind: 6mph
Humidity: 93%   Direction: 330°NNW
Pressure: 29.82"   Gusts: NA
Location:  44.5531°N, 89.5186°W
Report Text: KSTE 201015Z AUTO 33005KT 10SM CLR 06/05 A2982 RMK AO2 T00580047
Loading
Personal Weather Stations






























Interactive Weather Map
Tropical Storm Tracking
New forecast layout! Learn more

10-Day Weather Forecast

Advertisements
Track Severe Weather on mobile